sensor_id;sensor_type;location;lat;lon;timestamp;pressure;altitude;pressure_sealevel;temperature;humidity
62038;BME280;47991;42.974;12.082;2022-08-07T00:01:13;97544.45;;;24.44;46.35
62038;BME280;47991;42.974;12.082;2022-08-07T00:03:41;97539.77;;;24.42;45.47
62038;BME280;47991;42.974;12.082;2022-08-07T00:06:08;97540.67;;;24.30;45.97
62038;BME280;47991;42.974;12.082;2022-08-07T00:08:36;97538.95;;;24.06;47.15
62038;BME280;47991;42.974;12.082;2022-08-07T00:11:04;97537.59;;;23.84;47.32
62038;BME280;47991;42.974;12.082;2022-08-07T00:13:33;97537.71;;;23.78;47.34
62038;BME280;47991;42.974;12.082;2022-08-07T00:16:04;97534.02;;;23.79;47.05
62038;BME280;47991;42.974;12.082;2022-08-07T00:18:32;97529.86;;;23.84;47.49
62038;BME280;47991;42.974;12.082;2022-08-07T00:21:05;97530.92;;;23.86;47.12
62038;BME280;47991;42.974;12.082;2022-08-07T00:23:35;97530.29;;;23.92;46.50
62038;BME280;47991;42.974;12.082;2022-08-07T00:26:03;97525.20;;;23.92;46.47
62038;BME280;47991;42.974;12.082;2022-08-07T00:28:31;97524.90;;;23.74;46.78
62038;BME280;47991;42.974;12.082;2022-08-07T00:31:04;97520.85;;;23.71;47.07
62038;BME280;47991;42.974;12.082;2022-08-07T00:33:34;97521.42;;;23.66;47.55
62038;BME280;47991;42.974;12.082;2022-08-07T00:36:03;97519.20;;;23.67;47.35
62038;BME280;47991;42.974;12.082;2022-08-07T00:38:34;97516.36;;;23.66;47.48
62038;BME280;47991;42.974;12.082;2022-08-07T00:41:04;97512.48;;;23.63;48.29
62038;BME280;47991;42.974;12.082;2022-08-07T00:43:31;97515.21;;;23.41;47.96
62038;BME280;47991;42.974;12.082;2022-08-07T00:46:00;97514.95;;;23.40;47.58
62038;BME280;47991;42.974;12.082;2022-08-07T00:48:28;97511.99;;;23.39;48.34
62038;BME280;47991;42.974;12.082;2022-08-07T00:50:56;97511.89;;;23.45;48.14
62038;BME280;47991;42.974;12.082;2022-08-07T00:53:23;97512.83;;;23.51;48.10
62038;BME280;47991;42.974;12.082;2022-08-07T00:55:50;97513.25;;;23.56;47.78
62038;BME280;47991;42.974;12.082;2022-08-07T00:58:19;97508.77;;;23.58;47.93
62038;BME280;47991;42.974;12.082;2022-08-07T01:00:47;97507.06;;;23.44;47.93
62038;BME280;47991;42.974;12.082;2022-08-07T01:03:15;97503.75;;;23.06;49.07
62038;BME280;47991;42.974;12.082;2022-08-07T01:05:43;97504.45;;;22.84;49.43
62038;BME280;47991;42.974;12.082;2022-08-07T01:08:12;97503.66;;;22.76;49.42
62038;BME280;47991;42.974;12.082;2022-08-07T01:10:39;97503.48;;;22.76;49.43
62038;BME280;47991;42.974;12.082;2022-08-07T01:13:09;97501.63;;;22.77;49.43
62038;BME280;47991;42.974;12.082;2022-08-07T01:15:36;97505.13;;;22.80;49.77
62038;BME280;47991;42.974;12.082;2022-08-07T01:18:04;97506.06;;;22.82;50.06
62038;BME280;47991;42.974;12.082;2022-08-07T01:20:36;97501.91;;;22.76;49.95
62038;BME280;47991;42.974;12.082;2022-08-07T01:23:04;97502.80;;;22.78;50.28
62038;BME280;47991;42.974;12.082;2022-08-07T01:25:32;97502.40;;;22.81;50.39
62038;BME280;47991;42.974;12.082;2022-08-07T01:28:00;97501.64;;;22.83;50.64
62038;BME280;47991;42.974;12.082;2022-08-07T01:30:28;97500.66;;;22.84;50.59
62038;BME280;47991;42.974;12.082;2022-08-07T01:32:58;97498.90;;;22.84;50.51
62038;BME280;47991;42.974;12.082;2022-08-07T01:35:28;97501.91;;;22.69;50.53
62038;BME280;47991;42.974;12.082;2022-08-07T01:37:56;97503.08;;;22.50;51.26
62038;BME280;47991;42.974;12.082;2022-08-07T01:40:25;97504.23;;;22.40;51.14
62038;BME280;47991;42.974;12.082;2022-08-07T01:42:59;97505.50;;;22.38;51.60
62038;BME280;47991;42.974;12.082;2022-08-07T01:45:31;97507.29;;;22.40;51.95
62038;BME280;47991;42.974;12.082;2022-08-07T01:48:03;97506.65;;;22.35;52.05
62038;BME280;47991;42.974;12.082;2022-08-07T01:50:31;97505.02;;;22.28;52.15
62038;BME280;47991;42.974;12.082;2022-08-07T01:53:00;97503.21;;;22.12;52.61
62038;BME280;47991;42.974;12.082;2022-08-07T01:55:35;97502.30;;;21.94;53.18
62038;BME280;47991;42.974;12.082;2022-08-07T01:58:07;97498.44;;;21.88;53.71
62038;BME280;47991;42.974;12.082;2022-08-07T02:00:38;97497.88;;;21.93;53.12
62038;BME280;47991;42.974;12.082;2022-08-07T02:03:09;97495.36;;;21.88;53.37
62038;BME280;47991;42.974;12.082;2022-08-07T02:05:43;97492.29;;;21.86;53.58
62038;BME280;47991;42.974;12.082;2022-08-07T02:08:16;97491.92;;;21.89;54.08
62038;BME280;47991;42.974;12.082;2022-08-07T02:10:47;97491.78;;;21.86;54.57
62038;BME280;47991;42.974;12.082;2022-08-07T02:13:23;97491.06;;;21.81;54.35
62038;BME280;47991;42.974;12.082;2022-08-07T02:15:54;97489.83;;;21.86;54.43
62038;BME280;47991;42.974;12.082;2022-08-07T02:18:26;97495.67;;;21.89;55.03
62038;BME280;47991;42.974;12.082;2022-08-07T02:20:55;97497.34;;;21.81;55.18
62038;BME280;47991;42.974;12.082;2022-08-07T02:23:24;97495.27;;;21.85;54.66
62038;BME280;47991;42.974;12.082;2022-08-07T02:25:53;97494.40;;;21.89;54.91
62038;BME280;47991;42.974;12.082;2022-08-07T02:28:24;97496.66;;;21.95;54.13
62038;BME280;47991;42.974;12.082;2022-08-07T02:30:56;97495.61;;;22.01;54.54
62038;BME280;47991;42.974;12.082;2022-08-07T02:33:27;97494.44;;;22.00;54.02
62038;BME280;47991;42.974;12.082;2022-08-07T02:35:57;97492.40;;;21.92;54.48
62038;BME280;47991;42.974;12.082;2022-08-07T02:38:32;97487.37;;;21.78;55.05
62038;BME280;47991;42.974;12.082;2022-08-07T02:41:03;97493.10;;;21.62;56.00
62038;BME280;47991;42.974;12.082;2022-08-07T02:43:33;97493.89;;;21.47;56.00
62038;BME280;47991;42.974;12.082;2022-08-07T02:46:03;97492.65;;;21.35;56.29
62038;BME280;47991;42.974;12.082;2022-08-07T02:48:32;97492.89;;;21.41;56.04
62038;BME280;47991;42.974;12.082;2022-08-07T02:51:06;97491.03;;;21.54;55.73
62038;BME280;47991;42.974;12.082;2022-08-07T02:53:37;97489.07;;;21.61;56.38
62038;BME280;47991;42.974;12.082;2022-08-07T02:56:07;97492.91;;;21.64;56.34
62038;BME280;47991;42.974;12.082;2022-08-07T02:58:36;97492.59;;;21.66;56.11
62038;BME280;47991;42.974;12.082;2022-08-07T03:01:05;97491.73;;;21.63;57.17
62038;BME280;47991;42.974;12.082;2022-08-07T03:03:36;97488.02;;;21.60;56.78
62038;BME280;47991;42.974;12.082;2022-08-07T03:06:04;97489.45;;;21.63;56.62
62038;BME280;47991;42.974;12.082;2022-08-07T03:08:32;97490.08;;;21.57;56.57
62038;BME280;47991;42.974;12.082;2022-08-07T03:11:00;97492.66;;;21.52;57.01
62038;BME280;47991;42.974;12.082;2022-08-07T03:13:37;97490.23;;;21.51;56.95
62038;BME280;47991;42.974;12.082;2022-08-07T03:16:05;97493.64;;;21.51;57.22
62038;BME280;47991;42.974;12.082;2022-08-07T03:18:32;97492.20;;;21.45;57.65
62038;BME280;47991;42.974;12.082;2022-08-07T03:21:01;97500.45;;;21.39;58.07
62038;BME280;47991;42.974;12.082;2022-08-07T03:23:29;97499.49;;;21.35;58.43
62038;BME280;47991;42.974;12.082;2022-08-07T03:26:00;97506.23;;;21.43;58.60
62038;BME280;47991;42.974;12.082;2022-08-07T03:28:33;97504.15;;;21.52;58.30
62038;BME280;47991;42.974;12.082;2022-08-07T03:31:03;97502.31;;;21.59;58.44
62038;BME280;47991;42.974;12.082;2022-08-07T03:33:58;97505.56;;;21.63;58.48
62038;BME280;47991;42.974;12.082;2022-08-07T03:36:28;97504.30;;;21.57;58.88
62038;BME280;47991;42.974;12.082;2022-08-07T03:39:07;97506.32;;;21.37;59.85
62038;BME280;47991;42.974;12.082;2022-08-07T03:41:36;97507.23;;;21.27;60.48
62038;BME280;47991;42.974;12.082;2022-08-07T03:44:04;97507.43;;;21.27;60.36
62038;BME280;47991;42.974;12.082;2022-08-07T03:46:32;97513.17;;;21.29;60.95
62038;BME280;47991;42.974;12.082;2022-08-07T03:49:00;97510.89;;;21.34;61.26
62038;BME280;47991;42.974;12.082;2022-08-07T03:51:30;97517.41;;;21.40;61.62
62038;BME280;47991;42.974;12.082;2022-08-07T03:53:59;97515.08;;;21.50;61.27
62038;BME280;47991;42.974;12.082;2022-08-07T03:56:29;97517.33;;;21.60;61.23
62038;BME280;47991;42.974;12.082;2022-08-07T03:59:02;97518.65;;;21.64;60.82
62038;BME280;47991;42.974;12.082;2022-08-07T04:01:31;97514.05;;;21.63;61.80
62038;BME280;47991;42.974;12.082;2022-08-07T04:03:59;97518.39;;;21.65;61.43
62038;BME280;47991;42.974;12.082;2022-08-07T04:06:26;97520.12;;;21.69;61.11
62038;BME280;47991;42.974;12.082;2022-08-07T04:08:54;97521.12;;;21.70;61.25
62038;BME280;47991;42.974;12.082;2022-08-07T04:11:22;97522.45;;;21.73;60.55
62038;BME280;47991;42.974;12.082;2022-08-07T04:13:51;97524.49;;;21.68;60.64
62038;BME280;47991;42.974;12.082;2022-08-07T04:16:19;97528.52;;;21.60;61.62
62038;BME280;47991;42.974;12.082;2022-08-07T04:18:47;97532.46;;;21.58;61.77
62038;BME280;47991;42.974;12.082;2022-08-07T04:21:15;97534.21;;;21.61;61.10
62038;BME280;47991;42.974;12.082;2022-08-07T04:23:42;97536.42;;;21.67;60.89
62038;BME280;47991;42.974;12.082;2022-08-07T04:26:11;97538.83;;;21.69;61.06
62038;BME280;47991;42.974;12.082;2022-08-07T04:28:39;97543.02;;;21.66;61.40
62038;BME280;47991;42.974;12.082;2022-08-07T04:31:08;97545.02;;;21.70;61.29
62038;BME280;47991;42.974;12.082;2022-08-07T04:33:36;97548.14;;;21.76;61.15
62038;BME280;47991;42.974;12.082;2022-08-07T04:36:06;97546.79;;;21.87;60.94
62038;BME280;47991;42.974;12.082;2022-08-07T04:38:35;97552.56;;;21.96;60.61
62038;BME280;47991;42.974;12.082;2022-08-07T04:41:03;97556.98;;;22.02;60.47
62038;BME280;47991;42.974;12.082;2022-08-07T04:43:37;97558.34;;;22.07;61.21
62038;BME280;47991;42.974;12.082;2022-08-07T04:46:12;97563.56;;;22.02;60.84
62038;BME280;47991;42.974;12.082;2022-08-07T04:55:05;97575.86;;;22.06;61.13
62038;BME280;47991;42.974;12.082;2022-08-07T04:57:58;97575.77;;;22.23;60.72
62038;BME280;47991;42.974;12.082;2022-08-07T05:00:39;97576.93;;;22.32;60.93
62038;BME280;47991;42.974;12.082;2022-08-07T05:06:04;97574.02;;;23.38;60.06
62038;BME280;47991;42.974;12.082;2022-08-07T05:09:06;97575.50;;;23.63;59.85
62038;BME280;47991;42.974;12.082;2022-08-07T05:12:00;97574.20;;;23.80;59.75
62038;BME280;47991;42.974;12.082;2022-08-07T05:14:37;97576.94;;;24.10;58.94
62038;BME280;47991;42.974;12.082;2022-08-07T05:17:08;97573.48;;;24.43;57.92
62038;BME280;47991;42.974;12.082;2022-08-07T05:19:46;97574.04;;;24.55;57.51
62038;BME280;47991;42.974;12.082;2022-08-07T05:22:16;97575.02;;;24.67;57.59
62038;BME280;47991;42.974;12.082;2022-08-07T05:24:48;97569.84;;;25.01;56.96
62038;BME280;47991;42.974;12.082;2022-08-07T05:27:18;97573.70;;;25.30;56.68
62038;BME280;47991;42.974;12.082;2022-08-07T05:29:49;97577.98;;;25.72;55.70
62038;BME280;47991;42.974;12.082;2022-08-07T05:32:19;97578.27;;;26.53;53.77
62038;BME280;47991;42.974;12.082;2022-08-07T05:34:51;97576.23;;;27.67;51.39
62038;BME280;47991;42.974;12.082;2022-08-07T05:37:21;97578.55;;;28.31;50.44
62038;BME280;47991;42.974;12.082;2022-08-07T05:39:58;97580.34;;;28.85;49.51
62038;BME280;47991;42.974;12.082;2022-08-07T05:42:26;97579.85;;;29.26;48.60
62038;BME280;47991;42.974;12.082;2022-08-07T05:44:55;97580.66;;;29.70;47.40
62038;BME280;47991;42.974;12.082;2022-08-07T05:47:22;97580.98;;;30.25;45.87
62038;BME280;47991;42.974;12.082;2022-08-07T05:49:50;97580.31;;;30.67;45.33
62038;BME280;47991;42.974;12.082;2022-08-07T05:52:20;97579.02;;;31.10;43.37
62038;BME280;47991;42.974;12.082;2022-08-07T05:54:48;97569.75;;;31.75;42.76
62038;BME280;47991;42.974;12.082;2022-08-07T05:57:16;97573.31;;;32.32;42.06
62038;BME280;47991;42.974;12.082;2022-08-07T05:59:46;97572.62;;;32.60;41.73
62038;BME280;47991;42.974;12.082;2022-08-07T06:02:17;97569.11;;;32.99;41.13
62038;BME280;47991;42.974;12.082;2022-08-07T06:04:51;97568.89;;;33.61;39.10
62038;BME280;47991;42.974;12.082;2022-08-07T06:07:19;97567.56;;;33.73;38.67
62038;BME280;47991;42.974;12.082;2022-08-07T06:09:47;97566.77;;;34.20;38.85
62038;BME280;47991;42.974;12.082;2022-08-07T06:12:15;97570.34;;;34.45;38.14
62038;BME280;47991;42.974;12.082;2022-08-07T06:14:43;97573.50;;;35.02;37.82
62038;BME280;47991;42.974;12.082;2022-08-07T06:17:10;97575.21;;;35.73;36.77
62038;BME280;47991;42.974;12.082;2022-08-07T06:19:40;97577.32;;;36.19;35.10
62038;BME280;47991;42.974;12.082;2022-08-07T06:22:08;97577.96;;;36.54;34.50
62038;BME280;47991;42.974;12.082;2022-08-07T06:24:36;97577.48;;;36.47;34.27
62038;BME280;47991;42.974;12.082;2022-08-07T06:27:04;97583.21;;;36.01;35.12
62038;BME280;47991;42.974;12.082;2022-08-07T06:29:32;97584.82;;;35.71;35.37
62038;BME280;47991;42.974;12.082;2022-08-07T06:32:02;97585.91;;;35.00;36.57
62038;BME280;47991;42.974;12.082;2022-08-07T06:34:29;97589.12;;;34.70;36.94
62038;BME280;47991;42.974;12.082;2022-08-07T06:36:57;97582.02;;;34.31;37.74
62038;BME280;47991;42.974;12.082;2022-08-07T06:39:30;97585.77;;;33.68;38.82
62038;BME280;47991;42.974;12.082;2022-08-07T06:42:18;97584.66;;;33.22;39.80
62038;BME280;47991;42.974;12.082;2022-08-07T06:45:12;97582.52;;;32.78;40.77
62038;BME280;47991;42.974;12.082;2022-08-07T06:47:41;97576.00;;;32.42;41.36
62038;BME280;47991;42.974;12.082;2022-08-07T06:50:10;97577.97;;;31.85;42.59
62038;BME280;47991;42.974;12.082;2022-08-07T06:52:42;97576.11;;;31.37;43.21
62038;BME280;47991;42.974;12.082;2022-08-07T06:55:22;97576.92;;;31.14;44.24
62038;BME280;47991;42.974;12.082;2022-08-07T06:57:51;97575.18;;;30.69;45.13
62038;BME280;47991;42.974;12.082;2022-08-07T07:00:21;97574.95;;;30.51;45.15
62038;BME280;47991;42.974;12.082;2022-08-07T07:02:49;97571.34;;;30.53;45.21
62038;BME280;47991;42.974;12.082;2022-08-07T07:05:20;97572.31;;;30.41;45.90
62038;BME280;47991;42.974;12.082;2022-08-07T07:07:48;97566.44;;;30.13;45.96
62038;BME280;47991;42.974;12.082;2022-08-07T07:10:24;97560.52;;;30.08;46.56
62038;BME280;47991;42.974;12.082;2022-08-07T07:12:56;97561.96;;;29.86;47.41
62038;BME280;47991;42.974;12.082;2022-08-07T07:15:31;97553.39;;;29.96;46.96
62038;BME280;47991;42.974;12.082;2022-08-07T07:20:52;97557.45;;;30.45;45.56
62038;BME280;47991;42.974;12.082;2022-08-07T07:23:23;97559.25;;;30.84;44.90
62038;BME280;47991;42.974;12.082;2022-08-07T07:25:53;97556.00;;;31.01;44.17
62038;BME280;47991;42.974;12.082;2022-08-07T07:28:38;97552.73;;;31.09;44.07
62038;BME280;47991;42.974;12.082;2022-08-07T07:31:15;97551.45;;;31.20;43.87
62038;BME280;47991;42.974;12.082;2022-08-07T07:33:47;97547.59;;;31.39;43.44
62038;BME280;47991;42.974;12.082;2022-08-07T07:36:19;97546.11;;;31.20;44.00
62038;BME280;47991;42.974;12.082;2022-08-07T07:38:49;97546.89;;;30.90;44.67
62038;BME280;47991;42.974;12.082;2022-08-07T07:41:19;97543.40;;;30.91;44.52
62038;BME280;47991;42.974;12.082;2022-08-07T07:43:50;97540.81;;;31.09;43.89
62038;BME280;47991;42.974;12.082;2022-08-07T07:46:18;97541.04;;;31.26;43.57
62038;BME280;47991;42.974;12.082;2022-08-07T07:48:50;97535.38;;;31.38;43.11
62038;BME280;47991;42.974;12.082;2022-08-07T07:51:20;97536.72;;;31.49;42.81
62038;BME280;47991;42.974;12.082;2022-08-07T07:53:48;97536.92;;;31.58;42.22
62038;BME280;47991;42.974;12.082;2022-08-07T07:56:17;97540.80;;;31.37;42.13
62038;BME280;47991;42.974;12.082;2022-08-07T07:58:46;97541.89;;;31.08;42.15
62038;BME280;47991;42.974;12.082;2022-08-07T08:01:14;97536.16;;;31.27;42.60
62038;BME280;47991;42.974;12.082;2022-08-07T08:03:43;97530.88;;;31.47;41.87
62038;BME280;47991;42.974;12.082;2022-08-07T08:06:11;97531.27;;;31.63;41.77
62038;BME280;47991;42.974;12.082;2022-08-07T08:08:40;97532.21;;;31.53;41.31
62038;BME280;47991;42.974;12.082;2022-08-07T08:11:09;97527.48;;;31.54;41.36
62038;BME280;47991;42.974;12.082;2022-08-07T08:13:41;97526.86;;;31.28;41.42
62038;BME280;47991;42.974;12.082;2022-08-07T08:16:11;97527.11;;;31.23;41.70
62038;BME280;47991;42.974;12.082;2022-08-07T08:18:43;97524.98;;;31.18;42.07
62038;BME280;47991;42.974;12.082;2022-08-07T08:21:14;97526.16;;;31.67;41.17
62038;BME280;47991;42.974;12.082;2022-08-07T08:24:04;97523.58;;;31.89;40.18
62038;BME280;47991;42.974;12.082;2022-08-07T08:26:53;97524.48;;;31.92;39.95
62038;BME280;47991;42.974;12.082;2022-08-07T08:29:49;97528.23;;;31.97;39.53
62038;BME280;47991;42.974;12.082;2022-08-07T08:32:20;97524.66;;;32.14;39.09
62038;BME280;47991;42.974;12.082;2022-08-07T08:34:51;97524.88;;;32.15;39.05
62038;BME280;47991;42.974;12.082;2022-08-07T08:37:20;97522.41;;;32.53;38.63
62038;BME280;47991;42.974;12.082;2022-08-07T08:39:51;97527.94;;;32.38;38.90
62038;BME280;47991;42.974;12.082;2022-08-07T08:42:33;97525.04;;;32.14;38.72
62038;BME280;47991;42.974;12.082;2022-08-07T08:45:11;97527.55;;;31.94;39.29
62038;BME280;47991;42.974;12.082;2022-08-07T08:47:53;97518.10;;;32.30;38.73
62038;BME280;47991;42.974;12.082;2022-08-07T08:50:31;97519.35;;;32.48;37.91
62038;BME280;47991;42.974;12.082;2022-08-07T08:53:24;97518.87;;;32.44;38.08
62038;BME280;47991;42.974;12.082;2022-08-07T08:56:13;97513.23;;;32.34;38.66
62038;BME280;47991;42.974;12.082;2022-08-07T08:59:58;97513.23;;;32.65;38.08
62038;BME280;47991;42.974;12.082;2022-08-07T09:07:18;97511.29;;;33.18;36.72
62038;BME280;47991;42.974;12.082;2022-08-07T09:10:12;97509.83;;;33.44;36.29
62038;BME280;47991;42.974;12.082;2022-08-07T09:15:32;97515.42;;;33.85;35.67
62038;BME280;47991;42.974;12.082;2022-08-07T09:24:04;97512.23;;;34.19;34.35
62038;BME280;47991;42.974;12.082;2022-08-07T09:32:39;97506.06;;;34.42;34.13
62038;BME280;47991;42.974;12.082;2022-08-07T09:38:01;97501.10;;;34.62;32.60
62038;BME280;47991;42.974;12.082;2022-08-07T09:49:50;97496.02;;;34.36;32.29
62038;BME280;47991;42.974;12.082;2022-08-07T09:52:27;97494.76;;;34.43;32.00
62038;BME280;47991;42.974;12.082;2022-08-07T10:10:13;97488.73;;;35.02;31.14
62038;BME280;47991;42.974;12.082;2022-08-07T10:24:03;97471.66;;;35.62;29.85
62038;BME280;47991;42.974;12.082;2022-08-07T10:26:56;97466.66;;;35.67;29.82
62038;BME280;47991;42.974;12.082;2022-08-07T10:29:50;97463.79;;;35.65;29.26
62038;BME280;47991;42.974;12.082;2022-08-07T10:33:00;97463.33;;;35.45;29.48
62038;BME280;47991;42.974;12.082;2022-08-07T10:41:59;97454.09;;;35.64;29.19
62038;BME280;47991;42.974;12.082;2022-08-07T10:47:12;97446.70;;;35.82;27.84
62038;BME280;47991;42.974;12.082;2022-08-07T10:49:56;97443.39;;;35.86;27.65
62038;BME280;47991;42.974;12.082;2022-08-07T10:52:37;97438.80;;;35.84;27.70
62038;BME280;47991;42.974;12.082;2022-08-07T11:00:48;97429.96;;;35.74;27.68
62038;BME280;47991;42.974;12.082;2022-08-07T11:03:32;97423.70;;;36.25;26.98
62038;BME280;47991;42.974;12.082;2022-08-07T11:06:20;97420.84;;;36.45;25.97
62038;BME280;47991;42.974;12.082;2022-08-07T11:14:03;97412.45;;;37.03;25.55
62038;BME280;47991;42.974;12.082;2022-08-07T11:19:45;97413.13;;;36.63;25.55
62038;BME280;47991;42.974;12.082;2022-08-07T11:22:35;97409.70;;;36.94;24.86
62038;BME280;47991;42.974;12.082;2022-08-07T11:25:08;97402.02;;;37.11;24.57
62038;BME280;47991;42.974;12.082;2022-08-07T11:30:20;97400.33;;;36.79;24.75
62038;BME280;47991;42.974;12.082;2022-08-07T11:33:00;97395.13;;;36.93;24.72
62038;BME280;47991;42.974;12.082;2022-08-07T11:38:43;97382.86;;;37.43;23.04
62038;BME280;47991;42.974;12.082;2022-08-07T11:41:14;97380.52;;;37.25;23.79
62038;BME280;47991;42.974;12.082;2022-08-07T11:44:12;97363.46;;;36.90;24.47
62038;BME280;47991;42.974;12.082;2022-08-07T11:47:08;97362.94;;;36.55;24.66
62038;BME280;47991;42.974;12.082;2022-08-07T11:57:27;97353.52;;;37.46;24.38
62038;BME280;47991;42.974;12.082;2022-08-07T12:00:30;97356.05;;;36.69;25.70
62038;BME280;47991;42.974;12.082;2022-08-07T12:03:23;97363.05;;;36.04;26.06
62038;BME280;47991;42.974;12.082;2022-08-07T12:11:34;97354.75;;;35.70;26.42
62038;BME280;47991;42.974;12.082;2022-08-07T12:14:25;97361.60;;;35.56;26.82
62038;BME280;47991;42.974;12.082;2022-08-07T12:17:02;97359.55;;;35.50;28.50
62038;BME280;47991;42.974;12.082;2022-08-07T12:25:31;97354.34;;;34.85;30.72
62038;BME280;47991;42.974;12.082;2022-08-07T12:31:48;97367.58;;;34.55;31.13
62038;BME280;47991;42.974;12.082;2022-08-07T12:34:18;97357.30;;;34.42;31.71
62038;BME280;47991;42.974;12.082;2022-08-07T12:36:47;97351.88;;;34.28;31.89
62038;BME280;47991;42.974;12.082;2022-08-07T12:39:18;97346.85;;;34.23;32.11
62038;BME280;47991;42.974;12.082;2022-08-07T12:41:48;97349.32;;;34.14;32.97
62038;BME280;47991;42.974;12.082;2022-08-07T12:44:19;97355.05;;;34.01;32.78
62038;BME280;47991;42.974;12.082;2022-08-07T12:47:09;97363.82;;;33.90;32.96
62038;BME280;47991;42.974;12.082;2022-08-07T12:50:09;97370.70;;;33.81;33.62
62038;BME280;47991;42.974;12.082;2022-08-07T12:52:46;97369.27;;;33.67;33.47
62038;BME280;47991;42.974;12.082;2022-08-07T12:55:34;97365.45;;;33.61;33.55
62038;BME280;47991;42.974;12.082;2022-08-07T12:58:04;97366.17;;;33.49;33.60
62038;BME280;47991;42.974;12.082;2022-08-07T13:00:51;97357.25;;;33.41;33.95
62038;BME280;47991;42.974;12.082;2022-08-07T13:04:09;97349.23;;;33.34;33.88
62038;BME280;47991;42.974;12.082;2022-08-07T13:11:59;97335.68;;;33.10;34.48
62038;BME280;47991;42.974;12.082;2022-08-07T13:15:02;97334.48;;;32.96;34.90
62038;BME280;47991;42.974;12.082;2022-08-07T13:21:04;97323.98;;;32.74;35.58
62038;BME280;47991;42.974;12.082;2022-08-07T13:23:25;97320.79;;;32.63;36.03
62038;BME280;47991;42.974;12.082;2022-08-07T13:26:06;97311.81;;;32.59;35.92
62038;BME280;47991;42.974;12.082;2022-08-07T13:28:44;97314.97;;;32.51;36.00
62038;BME280;47991;42.974;12.082;2022-08-07T13:31:21;97317.88;;;32.43;36.51
62038;BME280;47991;42.974;12.082;2022-08-07T13:34:02;97328.67;;;32.36;36.60
62038;BME280;47991;42.974;12.082;2022-08-07T13:36:39;97333.98;;;32.35;36.36
62038;BME280;47991;42.974;12.082;2022-08-07T13:41:49;97344.58;;;32.25;36.85
62038;BME280;47991;42.974;12.082;2022-08-07T13:44:20;97348.41;;;32.20;36.98
62038;BME280;47991;42.974;12.082;2022-08-07T13:46:50;97358.84;;;32.22;36.41
62038;BME280;47991;42.974;12.082;2022-08-07T13:49:21;97354.51;;;32.24;35.43
62038;BME280;47991;42.974;12.082;2022-08-07T13:51:51;97355.79;;;32.26;35.10
62038;BME280;47991;42.974;12.082;2022-08-07T13:54:27;97364.04;;;32.21;34.78
62038;BME280;47991;42.974;12.082;2022-08-07T13:56:56;97361.33;;;32.03;34.97
62038;BME280;47991;42.974;12.082;2022-08-07T13:59:29;97356.30;;;31.89;35.42
62038;BME280;47991;42.974;12.082;2022-08-07T14:02:04;97354.60;;;31.82;35.30
62038;BME280;47991;42.974;12.082;2022-08-07T14:04:46;97352.55;;;31.77;35.23
62038;BME280;47991;42.974;12.082;2022-08-07T14:07:19;97354.64;;;31.79;35.29
62038;BME280;47991;42.974;12.082;2022-08-07T14:09:51;97354.73;;;31.82;35.30
62038;BME280;47991;42.974;12.082;2022-08-07T14:15:05;97347.98;;;31.67;35.47
62038;BME280;47991;42.974;12.082;2022-08-07T14:17:40;97344.22;;;31.59;35.47
62038;BME280;47991;42.974;12.082;2022-08-07T14:20:30;97352.33;;;31.57;35.70
62038;BME280;47991;42.974;12.082;2022-08-07T14:23:15;97357.47;;;31.49;35.86
62038;BME280;47991;42.974;12.082;2022-08-07T14:25:45;97352.61;;;31.53;35.73
62038;BME280;47991;42.974;12.082;2022-08-07T14:28:15;97352.23;;;31.61;35.82
62038;BME280;47991;42.974;12.082;2022-08-07T14:30:48;97344.54;;;31.62;35.69
62038;BME280;47991;42.974;12.082;2022-08-07T14:33:17;97334.54;;;31.68;35.59
62038;BME280;47991;42.974;12.082;2022-08-07T14:35:45;97338.19;;;31.70;35.75
62038;BME280;47991;42.974;12.082;2022-08-07T14:38:14;97345.85;;;31.56;36.16
62038;BME280;47991;42.974;12.082;2022-08-07T14:40:56;97359.39;;;31.39;36.36
62038;BME280;47991;42.974;12.082;2022-08-07T14:43:28;97370.20;;;31.25;36.74
62038;BME280;47991;42.974;12.082;2022-08-07T14:45:58;97381.80;;;31.13;36.94
62038;BME280;47991;42.974;12.082;2022-08-07T14:48:31;97386.80;;;31.08;37.16
62038;BME280;47991;42.974;12.082;2022-08-07T14:51:23;97398.90;;;31.22;36.58
62038;BME280;47991;42.974;12.082;2022-08-07T14:53:59;97401.39;;;31.27;36.50
62038;BME280;47991;42.974;12.082;2022-08-07T14:56:29;97407.11;;;31.29;36.32
62038;BME280;47991;42.974;12.082;2022-08-07T14:59:03;97404.17;;;31.37;36.31
62038;BME280;47991;42.974;12.082;2022-08-07T15:01:35;97400.62;;;31.39;36.24
62038;BME280;47991;42.974;12.082;2022-08-07T15:04:05;97397.39;;;31.38;36.21
62038;BME280;47991;42.974;12.082;2022-08-07T15:06:35;97390.32;;;31.26;36.37
62038;BME280;47991;42.974;12.082;2022-08-07T15:09:09;97384.13;;;31.18;36.21
62038;BME280;47991;42.974;12.082;2022-08-07T15:12:00;97387.92;;;31.17;36.41
62038;BME280;47991;42.974;12.082;2022-08-07T15:14:32;97395.39;;;31.27;36.24
62038;BME280;47991;42.974;12.082;2022-08-07T15:17:08;97406.56;;;31.34;36.28
62038;BME280;47991;42.974;12.082;2022-08-07T15:19:38;97411.35;;;31.40;35.81
62038;BME280;47991;42.974;12.082;2022-08-07T15:22:13;97420.41;;;31.48;35.68
62038;BME280;47991;42.974;12.082;2022-08-07T15:24:46;97424.00;;;31.41;35.47
62038;BME280;47991;42.974;12.082;2022-08-07T15:27:19;97428.66;;;31.37;35.63
62038;BME280;47991;42.974;12.082;2022-08-07T15:29:53;97434.72;;;31.32;35.61
62038;BME280;47991;42.974;12.082;2022-08-07T15:32:23;97438.29;;;31.24;36.14
62038;BME280;47991;42.974;12.082;2022-08-07T15:34:54;97437.00;;;31.25;36.01
62038;BME280;47991;42.974;12.082;2022-08-07T15:37:30;97431.73;;;31.16;36.23
62038;BME280;47991;42.974;12.082;2022-08-07T15:40:02;97427.21;;;31.11;36.28